createdAt,value
2019-06-26T00:00:36.481Z,67.40
2019-06-26T00:01:34.567Z,67.40
2019-06-26T00:02:34.594Z,67.30
2019-06-26T00:03:34.546Z,67.30
2019-06-26T00:04:34.540Z,67.40
2019-06-26T00:05:34.526Z,67.40
2019-06-26T00:06:34.511Z,67.40
2019-06-26T00:07:34.507Z,67.40
2019-06-26T00:08:34.514Z,67.40
2019-06-26T00:09:34.485Z,67.40
2019-06-26T00:10:34.475Z,67.40
2019-06-26T00:11:34.456Z,67.40
2019-06-26T00:12:34.472Z,67.40
2019-06-26T00:13:34.440Z,67.40
2019-06-26T00:14:38.406Z,67.40
2019-06-26T00:15:34.424Z,67.50
2019-06-26T00:16:34.406Z,67.60
2019-06-26T00:17:34.392Z,67.60
2019-06-26T00:18:34.381Z,67.60
2019-06-26T00:19:34.413Z,67.60
2019-06-26T00:20:34.364Z,67.60
2019-06-26T00:21:34.354Z,67.50
2019-06-26T00:22:34.370Z,67.50
2019-06-26T00:23:34.336Z,67.50
2019-06-26T00:24:34.318Z,67.50
2019-06-26T00:25:34.328Z,67.50
2019-06-26T00:26:34.298Z,67.50
2019-06-26T00:27:34.340Z,67.50
2019-06-26T00:28:34.291Z,67.50
2019-06-26T00:29:34.268Z,67.60
2019-06-26T00:30:34.285Z,67.60
2019-06-26T00:31:34.245Z,67.50
2019-06-26T00:32:34.232Z,67.60
2019-06-26T00:33:34.217Z,67.50
2019-06-26T00:34:34.208Z,67.50
2019-06-26T00:35:34.221Z,67.50
2019-06-26T00:36:34.234Z,67.60
2019-06-26T00:37:34.210Z,67.50
2019-06-26T00:38:34.165Z,67.60
2019-06-26T00:39:34.158Z,67.50
2019-06-26T00:40:34.150Z,67.50
2019-06-26T00:41:34.134Z,67.50
2019-06-26T00:42:34.127Z,67.60
2019-06-26T00:43:42.395Z,67.50
2019-06-26T00:44:35.097Z,67.50
2019-06-26T00:45:34.111Z,67.50
2019-06-26T00:46:34.126Z,67.50
2019-06-26T00:47:34.067Z,67.50
2019-06-26T00:48:34.073Z,67.50
2019-06-26T00:49:34.042Z,67.50
2019-06-26T00:50:34.033Z,67.50
2019-06-26T00:51:34.029Z,67.50
2019-06-26T00:52:34.035Z,67.50
2019-06-26T00:53:34.001Z,67.50
2019-06-26T00:54:33.990Z,67.60
2019-06-26T00:55:33.989Z,67.50
2019-06-26T00:56:33.971Z,67.60
2019-06-26T00:57:33.994Z,67.60
2019-06-26T00:58:33.968Z,67.60
2019-06-26T00:59:33.937Z,67.50
2019-06-26T01:00:33.929Z,67.50
2019-06-26T01:01:33.919Z,67.50
2019-06-26T01:02:33.925Z,67.50
2019-06-26T01:03:33.901Z,67.50
2019-06-26T01:04:33.880Z,67.50
2019-06-26T01:05:33.876Z,67.50
2019-06-26T01:06:33.862Z,67.50
2019-06-26T01:07:33.867Z,67.50
2019-06-26T01:08:33.883Z,67.50
2019-06-26T01:09:33.827Z,67.50
2019-06-26T01:10:33.821Z,67.50
2019-06-26T01:11:33.806Z,67.50
2019-06-26T01:12:33.793Z,67.50
2019-06-26T01:13:33.785Z,67.60
2019-06-26T01:14:33.794Z,67.60
2019-06-26T01:15:33.767Z,67.60
2019-06-26T01:16:33.755Z,67.60
2019-06-26T01:17:33.763Z,67.70
2019-06-26T01:18:33.732Z,67.70
2019-06-26T01:19:33.723Z,67.60
2019-06-26T01:20:33.704Z,67.60
2019-06-26T01:21:33.695Z,67.60
2019-06-26T01:22:33.712Z,67.60
2019-06-26T01:23:33.673Z,67.60
2019-06-26T01:24:33.696Z,67.60
2019-06-26T01:25:33.651Z,67.60
2019-06-26T01:26:33.641Z,67.60
2019-06-26T01:27:33.735Z,67.70
2019-06-26T01:28:33.693Z,67.70
2019-06-26T01:29:33.621Z,67.70
2019-06-26T01:30:33.602Z,67.70
2019-06-26T01:31:33.614Z,67.70
2019-06-26T01:32:33.576Z,67.70
2019-06-26T03:52:55.615Z,68.00
2019-06-26T03:53:46.091Z,68.00
2019-06-26T03:54:46.073Z,68.00
2019-06-26T03:55:46.087Z,68.00
2019-06-26T03:56:46.052Z,68.10
2019-06-26T03:57:46.055Z,68.10
2019-06-26T03:58:46.025Z,68.10
2019-06-26T03:59:46.036Z,68.10
2019-06-26T04:00:46.011Z,68.10
2019-06-26T04:01:45.998Z,68.10
2019-06-26T04:02:46.017Z,68.10
2019-06-26T04:03:45.975Z,68.10
2019-06-26T04:04:45.966Z,68.10
2019-06-26T04:05:45.955Z,68.10
2019-06-26T04:06:45.951Z,68.10
2019-06-26T04:07:45.940Z,68.10
2019-06-26T04:08:45.958Z,68.10
2019-06-26T04:09:45.931Z,68.10
2019-06-26T04:10:45.900Z,68.19
2019-06-26T04:11:45.893Z,68.19
2019-06-26T04:12:45.904Z,68.19
2019-06-26T04:13:45.871Z,68.19
2019-06-26T04:14:45.873Z,68.10
2019-06-26T04:15:45.842Z,68.10
2019-06-26T04:16:45.841Z,68.00
2019-06-26T04:17:45.821Z,68.10
2019-06-26T04:18:45.853Z,68.10
2019-06-26T04:19:45.805Z,68.10
2019-06-26T04:20:45.812Z,68.00
2019-06-26T04:21:45.780Z,68.10
2019-06-26T04:22:47.678Z,68.10
2019-06-26T04:23:45.756Z,68.10
2019-06-26T04:24:45.777Z,68.19
2019-06-26T04:25:45.737Z,68.19
2019-06-26T04:26:45.728Z,68.19
2019-06-26T04:27:45.759Z,68.10
2019-06-26T04:28:45.703Z,68.19
2019-06-26T04:29:45.702Z,68.19
2019-06-26T04:30:45.707Z,68.19
2019-06-26T04:31:45.673Z,68.19
2019-06-26T04:32:45.674Z,68.19
2019-06-26T04:33:45.649Z,68.19
2019-06-26T04:34:45.639Z,68.30
2019-06-26T04:35:45.624Z,68.30
2019-06-26T04:36:45.713Z,68.30
2019-06-26T04:37:45.604Z,68.30
2019-06-26T04:38:45.596Z,68.40
2019-06-26T04:39:45.612Z,68.40
2019-06-26T04:40:45.572Z,68.40
2019-06-26T04:41:45.559Z,68.40
2019-06-26T04:42:45.583Z,68.49
2019-06-26T04:43:45.538Z,68.60
2019-06-26T04:44:45.531Z,68.70
2019-06-26T04:45:57.828Z,68.60
2019-06-26T04:46:46.508Z,68.60
2019-06-26T04:47:45.498Z,68.60
2019-06-26T04:48:45.522Z,68.49
2019-06-26T04:49:45.481Z,68.60
2019-06-26T04:50:45.470Z,68.60
2019-06-26T04:51:45.453Z,68.60
2019-06-26T04:52:45.445Z,68.70
2019-06-26T04:53:45.429Z,68.70
2019-06-26T04:54:45.449Z,68.70
2019-06-26T04:55:45.430Z,68.70
2019-06-26T04:56:45.397Z,68.79
2019-06-26T04:57:45.607Z,68.79
2019-06-26T04:58:45.384Z,68.70
2019-06-26T04:59:45.370Z,68.70
2019-06-26T05:00:45.606Z,68.79
2019-06-26T05:01:45.354Z,68.79
2019-06-26T05:02:45.360Z,68.79
2019-06-26T05:03:45.326Z,68.79
2019-06-26T05:04:45.318Z,68.79
2019-06-26T05:05:45.303Z,68.79
2019-06-26T05:06:45.329Z,68.79
2019-06-26T05:07:45.285Z,68.79
2019-06-26T05:08:45.277Z,68.79
2019-06-26T05:09:45.256Z,68.79
2019-06-26T05:10:45.254Z,68.79
2019-06-26T05:11:45.244Z,68.90
2019-06-26T05:12:45.245Z,68.90
2019-06-26T05:13:45.228Z,68.79
2019-06-26T05:14:45.202Z,68.90
2019-06-26T05:15:45.194Z,68.90
2019-06-26T05:16:45.183Z,68.79
2019-06-26T05:17:45.194Z,68.90
2019-06-26T05:18:45.173Z,68.90
2019-06-26T05:19:45.148Z,68.90
2019-06-26T05:20:45.151Z,68.90
2019-06-26T05:21:45.134Z,68.79
2019-06-26T05:22:45.151Z,68.90
2019-06-26T05:23:45.106Z,68.90
2019-06-26T05:24:46.531Z,68.90
2019-06-26T05:25:45.091Z,68.90
2019-06-26T05:26:45.076Z,68.90
2019-06-26T05:27:45.074Z,68.79
2019-06-26T05:28:45.094Z,68.79
2019-06-26T05:29:45.043Z,68.79
2019-06-26T05:30:45.037Z,68.90
2019-06-26T05:31:45.033Z,68.79
2019-06-26T05:32:45.028Z,68.79
2019-06-26T05:33:45.024Z,68.90
2019-06-26T05:34:44.994Z,68.99
2019-06-26T05:35:44.978Z,68.99
2019-06-26T05:36:44.981Z,68.99
2019-06-26T05:37:44.961Z,68.99
2019-06-26T05:38:44.973Z,68.99
2019-06-26T05:39:44.937Z,68.99
2019-06-26T05:40:44.933Z,68.99
2019-06-26T05:41:44.923Z,68.99
2019-06-26T05:42:44.907Z,68.99
2019-06-26T05:43:44.893Z,68.99
2019-06-26T05:44:44.904Z,68.99
2019-06-26T05:45:44.868Z,68.99
2019-06-26T05:46:44.860Z,68.99
2019-06-26T05:47:44.847Z,68.99
2019-06-26T05:48:44.835Z,68.99
2019-06-26T05:49:44.855Z,69.09
2019-06-26T05:50:44.818Z,69.09
2019-06-26T05:51:44.802Z,69.09
2019-06-26T05:52:44.798Z,68.99
2019-06-26T05:53:44.782Z,69.09
2019-06-26T05:54:44.768Z,69.09
2019-06-26T05:55:44.786Z,69.20
2019-06-26T05:56:45.586Z,69.20
2019-06-26T05:57:48.205Z,69.20
2019-06-26T05:58:44.732Z,69.20
2019-06-26T05:59:44.717Z,69.20
2019-06-26T06:00:44.726Z,69.20
2019-06-26T06:01:44.706Z,69.29
2019-06-26T06:02:44.701Z,69.39
2019-06-26T06:03:44.679Z,69.39
2019-06-26T06:04:44.679Z,69.39
2019-06-26T06:05:44.678Z,69.39
2019-06-26T06:06:44.644Z,69.39
2019-06-26T06:07:44.662Z,69.39
2019-06-26T06:08:44.618Z,69.36
2019-06-26T06:09:44.613Z,69.39
2019-06-26T06:10:44.598Z,69.46
2019-06-26T06:11:44.591Z,69.49
2019-06-26T06:12:44.580Z,69.46
2019-06-26T06:13:44.610Z,69.46
2019-06-26T06:14:44.559Z,69.46
2019-06-26T06:15:44.552Z,69.49
2019-06-26T06:16:47.716Z,69.46
2019-06-26T06:17:44.528Z,69.46
2019-06-26T06:18:44.515Z,69.59
2019-06-26T06:19:44.523Z,69.56
2019-06-26T06:20:44.491Z,69.56
2019-06-26T06:21:44.483Z,69.59
2019-06-26T06:22:44.470Z,69.46
2019-06-26T06:23:44.476Z,69.46
2019-06-26T06:24:44.477Z,69.46
2019-06-26T06:25:44.435Z,69.49
2019-06-26T06:26:44.429Z,69.46
2019-06-26T06:27:44.440Z,69.49
2019-06-26T06:28:44.406Z,69.46
2019-06-26T06:29:44.414Z,69.46
2019-06-26T06:30:44.390Z,69.46
2019-06-26T06:31:44.390Z,69.36
2019-06-26T06:32:44.361Z,69.46
2019-06-26T06:33:44.353Z,69.46
2019-06-26T06:34:44.345Z,69.46
2019-06-26T06:35:44.337Z,69.49
2019-06-26T06:36:44.346Z,69.46
2019-06-26T06:37:44.327Z,69.46
2019-06-26T06:38:44.318Z,69.46
2019-06-26T06:39:44.289Z,69.46
2019-06-26T06:40:44.282Z,69.36
2019-06-26T06:41:44.313Z,69.36
2019-06-26T06:42:44.253Z,69.26
2019-06-26T06:43:44.241Z,69.36
2019-06-26T06:44:44.227Z,69.36
2019-06-26T06:45:44.223Z,69.36
2019-06-26T06:46:44.211Z,69.36
2019-06-26T06:47:44.218Z,69.36
2019-06-26T06:48:44.197Z,69.36
2019-06-26T06:49:44.173Z,69.36
2019-06-26T06:50:44.183Z,69.36
2019-06-26T06:51:44.153Z,69.39
2019-06-26T06:52:44.145Z,69.36
2019-06-26T06:53:44.159Z,69.26
2019-06-26T06:54:44.149Z,69.26
2019-06-26T06:55:44.114Z,69.26
2019-06-26T06:56:44.097Z,69.36
2019-06-26T06:57:44.095Z,69.39
2019-06-26T06:58:44.095Z,69.36
2019-06-26T06:59:44.101Z,69.36
2019-06-26T07:00:44.052Z,69.26
2019-06-26T07:01:44.049Z,69.29
2019-06-26T07:02:44.035Z,69.36
2019-06-26T07:03:44.031Z,69.36
2019-06-26T07:04:44.041Z,69.36
2019-06-26T07:05:44.049Z,69.46
2019-06-26T07:06:43.992Z,69.46
2019-06-26T07:07:43.980Z,69.36
2019-06-26T07:08:43.981Z,69.36
2019-06-26T07:09:43.957Z,69.26
2019-06-26T07:10:43.967Z,69.16
2019-06-26T07:11:43.937Z,69.16
2019-06-26T07:12:43.939Z,69.06
2019-06-26T07:13:43.914Z,69.06
2019-06-26T07:14:43.904Z,68.96
2019-06-26T07:15:43.926Z,68.96
2019-06-26T07:16:43.886Z,68.96
2019-06-26T07:17:43.875Z,68.96
2019-06-26T07:18:43.887Z,68.96
2019-06-26T07:19:43.853Z,69.06
2019-06-26T07:20:44.809Z,69.06
2019-06-26T07:21:43.851Z,69.06
2019-06-26T07:22:43.828Z,69.06
2019-06-26T07:23:43.805Z,69.06
2019-06-26T07:24:43.791Z,69.06
2019-06-26T07:25:43.809Z,69.06
2019-06-26T07:26:43.774Z,69.06
2019-06-26T07:27:43.764Z,68.96
2019-06-26T07:28:43.760Z,68.96
2019-06-26T07:29:43.745Z,69.06
2019-06-26T07:30:43.753Z,69.06
2019-06-26T07:31:43.732Z,69.06
2019-06-26T07:32:43.716Z,69.06
2019-06-26T07:33:43.693Z,68.86
2019-06-26T07:34:43.686Z,68.76
2019-06-26T07:35:43.721Z,68.76
2019-06-26T07:36:43.666Z,68.76
2019-06-26T07:37:43.654Z,68.66
2019-06-26T07:38:43.640Z,68.56
2019-06-26T07:39:43.634Z,68.56
2019-06-26T07:40:43.623Z,68.76
2019-06-26T07:41:43.657Z,68.76
2019-06-26T07:42:43.598Z,68.76
2019-06-26T07:43:43.585Z,68.76
2019-06-26T07:44:43.582Z,68.86
2019-06-26T07:45:43.562Z,68.86
2019-06-26T07:46:43.553Z,68.86
2019-06-26T07:47:44.396Z,68.96
2019-06-26T07:48:43.544Z,68.86
2019-06-26T07:49:43.518Z,68.96
2019-06-26T07:50:43.516Z,68.96
2019-06-26T07:51:43.499Z,68.96
2019-06-26T07:52:43.531Z,68.96
2019-06-26T07:53:43.483Z,68.86
2019-06-26T07:54:43.479Z,68.86
2019-06-26T07:55:43.457Z,68.86
2019-06-26T07:56:43.451Z,68.86
2019-06-26T07:57:43.437Z,68.86
2019-06-26T07:58:43.445Z,68.86
2019-06-26T07:59:43.412Z,68.86
2019-06-26T08:00:43.410Z,68.86
2019-06-26T08:01:43.392Z,68.86
2019-06-26T08:02:43.376Z,68.86
2019-06-26T08:03:43.401Z,68.86
2019-06-26T08:04:43.362Z,68.86
2019-06-26T08:05:43.502Z,68.86
2019-06-26T08:06:43.437Z,68.76
2019-06-26T08:07:43.327Z,68.86
2019-06-26T08:08:43.405Z,68.86
2019-06-26T08:09:43.306Z,68.86
2019-06-26T08:10:43.301Z,69.76
2019-06-26T08:11:43.284Z,70.16
2019-06-26T08:12:43.273Z,70.26
2019-06-26T08:13:43.262Z,70.16
2019-06-26T08:14:43.287Z,70.26
2019-06-26T08:15:43.241Z,70.26
2019-06-26T08:16:43.226Z,69.86
2019-06-26T08:17:59.406Z,69.96
2019-06-26T08:18:44.205Z,69.86
2019-06-26T08:19:43.195Z,70.26
2019-06-26T08:20:55.439Z,71.02
2019-06-26T08:21:46.629Z,71.55
2019-06-26T08:22:43.163Z,71.51
2019-06-26T08:23:43.149Z,71.62
2019-06-26T08:24:43.140Z,71.62
2019-06-26T08:25:43.149Z,71.62
2019-06-26T08:26:43.156Z,71.62
2019-06-26T08:27:43.110Z,71.51
2019-06-26T08:28:43.094Z,71.62
2019-06-26T08:29:43.085Z,71.72
2019-06-26T08:30:43.079Z,71.62
2019-06-26T08:31:43.065Z,71.62
2019-06-26T08:32:43.089Z,71.51
2019-06-26T08:33:43.040Z,71.42
2019-06-26T08:34:43.033Z,71.32
2019-06-26T08:35:43.029Z,71.22
2019-06-26T08:36:43.013Z,70.92
2019-06-26T08:37:43.034Z,70.72
2019-06-26T08:38:43.000Z,70.42
2019-06-26T08:39:42.974Z,70.22
2019-06-26T08:40:42.971Z,70.22
2019-06-26T08:41:42.964Z,70.12
2019-06-26T08:42:42.948Z,70.12
2019-06-26T08:43:42.957Z,70.03
2019-06-26T08:44:42.923Z,69.82
2019-06-26T08:45:42.913Z,69.73
2019-06-26T08:46:42.907Z,69.62
2019-06-26T08:47:42.956Z,69.62
2019-06-26T08:48:42.889Z,69.53
2019-06-26T08:49:42.895Z,69.53
2019-06-26T08:50:42.861Z,69.43
2019-06-26T08:51:42.850Z,69.32
2019-06-26T08:52:42.832Z,69.32
2019-06-26T08:53:42.852Z,69.23
2019-06-26T08:54:42.819Z,69.13
2019-06-26T08:55:42.854Z,69.02
2019-06-26T08:56:42.794Z,69.02
2019-06-26T08:57:42.787Z,69.02
2019-06-26T08:58:42.770Z,68.93
2019-06-26T08:59:42.757Z,68.83
2019-06-26T09:00:42.748Z,68.83
2019-06-26T09:01:42.761Z,68.83
2019-06-26T09:02:42.747Z,68.73
2019-06-26T09:03:42.715Z,68.73
2019-06-26T09:04:42.701Z,68.73
2019-06-26T09:05:48.057Z,68.73
2019-06-26T09:06:43.701Z,68.63
2019-06-26T09:07:42.694Z,68.63
2019-06-26T09:08:42.658Z,68.53
2019-06-26T09:09:42.646Z,68.53
2019-06-26T09:10:45.073Z,68.53
2019-06-26T09:11:42.661Z,68.53
2019-06-26T09:12:42.615Z,68.53
2019-06-26T09:13:42.634Z,68.43
2019-06-26T09:14:42.615Z,68.43
2019-06-26T09:15:42.588Z,68.33
2019-06-26T09:16:42.575Z,68.43
2019-06-26T09:17:42.596Z,68.33
2019-06-26T09:18:42.561Z,68.33
2019-06-26T09:19:42.548Z,68.33
2019-06-26T09:20:42.531Z,68.33
2019-06-26T09:21:42.558Z,68.23
2019-06-26T09:22:42.504Z,68.23
2019-06-26T09:23:42.518Z,68.23
2019-06-26T09:24:42.489Z,68.13
2019-06-26T09:25:42.474Z,68.13
2019-06-26T09:26:42.458Z,68.13
2019-06-26T09:27:42.478Z,68.13
2019-06-26T09:28:42.446Z,68.13
2019-06-26T09:29:42.432Z,68.03
2019-06-26T09:30:42.421Z,67.93
2019-06-26T09:31:42.412Z,67.93
2019-06-26T09:32:42.422Z,67.93
2019-06-26T09:33:42.391Z,67.93
2019-06-26T09:34:42.392Z,67.93
2019-06-26T09:35:42.373Z,67.93
2019-06-26T09:36:42.383Z,67.93
2019-06-26T09:37:42.346Z,67.93
2019-06-26T09:38:42.375Z,67.93
2019-06-26T09:39:42.326Z,67.83
2019-06-26T09:40:42.314Z,67.83
2019-06-26T09:41:42.304Z,67.83
2019-06-26T09:42:42.304Z,67.83
2019-06-26T09:43:42.306Z,67.83
2019-06-26T09:44:42.271Z,67.83
2019-06-26T09:45:42.269Z,67.83
2019-06-26T09:46:42.269Z,67.73
2019-06-26T09:47:42.231Z,67.73
2019-06-26T09:48:52.298Z,67.73
2019-06-26T09:49:43.231Z,67.63
2019-06-26T09:50:42.210Z,67.63
2019-06-26T09:51:42.187Z,67.63
2019-06-26T09:52:42.210Z,67.63
2019-06-26T09:53:47.049Z,67.63
2019-06-26T09:54:43.184Z,67.63
2019-06-26T09:55:42.162Z,67.73
2019-06-26T09:56:42.141Z,67.63
2019-06-26T09:57:42.155Z,67.83
2019-06-26T09:58:42.142Z,67.73
2019-06-26T09:59:42.126Z,67.63
2019-06-26T10:00:42.096Z,67.63
2019-06-26T10:01:42.089Z,67.63
2019-06-26T10:02:42.069Z,67.63
2019-06-26T10:03:45.117Z,67.63
2019-06-26T10:04:42.073Z,67.63
2019-06-26T10:05:42.038Z,67.63
2019-06-26T10:06:42.034Z,67.63
2019-06-26T10:07:42.027Z,67.63
2019-06-26T10:08:42.047Z,67.63
2019-06-26T10:09:42.021Z,67.63
2019-06-26T10:10:41.985Z,67.63
2019-06-26T10:11:41.983Z,67.63
2019-06-26T10:12:41.959Z,67.54
2019-06-26T10:13:41.950Z,67.54
2019-06-26T10:14:47.779Z,67.43
2019-06-26T10:15:42.928Z,67.43
2019-06-26T10:16:41.949Z,67.33
2019-06-26T10:17:41.909Z,67.43
2019-06-26T10:18:41.897Z,67.33
2019-06-26T10:19:41.892Z,67.33
2019-06-26T10:20:41.895Z,67.24
2019-06-26T10:21:41.863Z,67.33
2019-06-26T10:22:41.869Z,67.33
2019-06-26T10:23:41.843Z,67.24
2019-06-26T10:24:41.837Z,67.24
2019-06-26T10:25:41.830Z,67.24
2019-06-26T10:26:41.858Z,67.24
2019-06-26T10:27:41.814Z,67.24
2019-06-26T10:28:41.797Z,67.24
2019-06-26T10:29:41.783Z,67.33
2019-06-26T10:30:41.769Z,67.24
2019-06-26T10:31:41.791Z,67.24
2019-06-26T10:32:41.803Z,67.24
2019-06-26T10:33:41.739Z,67.24
2019-06-26T10:34:41.725Z,67.24
2019-06-26T10:35:41.712Z,67.24
2019-06-26T10:36:41.801Z,67.24
2019-06-26T10:37:41.717Z,67.24
2019-06-26T10:38:41.686Z,67.24
2019-06-26T10:39:41.670Z,67.24
2019-06-26T10:40:41.656Z,67.24
2019-06-26T10:41:41.656Z,67.24
2019-06-26T10:42:41.632Z,67.24
2019-06-26T10:43:41.648Z,67.24
2019-06-26T10:44:41.632Z,67.24
2019-06-26T10:45:41.612Z,67.24
2019-06-26T10:46:41.597Z,67.13
2019-06-26T10:47:41.601Z,67.13
2019-06-26T10:48:41.585Z,67.03
2019-06-26T10:49:41.583Z,67.03
2019-06-26T10:50:49.426Z,66.94
2019-06-26T10:51:42.535Z,66.94
2019-06-26T10:52:41.531Z,67.03
2019-06-26T10:53:41.522Z,67.03
2019-06-26T10:54:44.291Z,67.03
2019-06-26T10:55:41.511Z,67.03
2019-06-26T10:56:41.487Z,67.13
2019-06-26T10:57:41.491Z,67.13
2019-06-26T10:58:41.467Z,67.24
2019-06-26T10:59:41.474Z,67.13
2019-06-26T11:00:41.444Z,67.24
2019-06-26T11:01:41.469Z,67.33
2019-06-26T11:02:41.419Z,67.54
2019-06-26T11:03:41.411Z,67.73
2019-06-26T11:04:41.400Z,67.73
2019-06-26T11:05:41.406Z,67.63
2019-06-26T11:06:41.384Z,67.54
2019-06-26T11:07:41.389Z,67.63
2019-06-26T11:08:41.360Z,67.83
2019-06-26T11:09:41.347Z,67.83
2019-06-26T11:10:41.358Z,67.83
2019-06-26T11:11:41.353Z,67.40
2019-06-26T11:12:41.338Z,67.00
2019-06-26T11:13:41.303Z,66.91
2019-06-26T11:14:41.302Z,66.91
2019-06-26T11:15:41.287Z,66.91
2019-06-26T11:16:41.298Z,66.80
2019-06-26T11:17:41.266Z,66.80
2019-06-26T11:18:41.271Z,66.80
2019-06-26T11:19:44.206Z,66.71
2019-06-26T11:20:41.232Z,66.80
2019-06-26T11:21:41.210Z,66.61
2019-06-26T11:22:41.227Z,66.41
2019-06-26T11:23:41.189Z,66.20
2019-06-26T11:24:41.244Z,66.20
2019-06-26T11:25:44.304Z,66.31
2019-06-26T11:26:41.157Z,66.61
2019-06-26T11:27:41.180Z,66.50
2019-06-26T11:28:41.139Z,66.80
2019-06-26T11:29:41.126Z,66.57
2019-06-26T11:30:41.123Z,66.57
2019-06-26T11:31:41.117Z,66.47
2019-06-26T11:32:41.111Z,66.38
2019-06-26T11:33:41.126Z,66.38
2019-06-26T11:34:41.134Z,66.38
2019-06-26T11:35:41.059Z,66.57
2019-06-26T11:36:41.064Z,66.57
2019-06-26T11:37:41.046Z,66.57
2019-06-26T11:38:41.066Z,66.87
2019-06-26T11:39:41.158Z,66.80
2019-06-26T11:40:41.018Z,66.77
2019-06-26T11:41:41.030Z,66.80
2019-06-26T11:42:41.001Z,66.87
2019-06-26T11:43:40.999Z,67.07
2019-06-26T11:44:41.038Z,66.97
2019-06-26T11:45:40.956Z,66.77
2019-06-26T11:46:40.953Z,66.67
2019-06-26T11:47:40.935Z,66.57
2019-06-26T11:48:40.938Z,66.57
2019-06-26T11:49:40.907Z,66.57
2019-06-26T11:50:40.927Z,66.57
2019-06-26T11:51:40.905Z,66.67
2019-06-26T11:52:40.876Z,66.67
2019-06-26T11:53:40.914Z,66.67
2019-06-26T11:54:40.885Z,66.67
2019-06-26T11:55:40.851Z,66.67
2019-06-26T11:56:40.883Z,66.67
2019-06-26T11:57:40.828Z,67.07
2019-06-26T11:58:40.817Z,67.07
2019-06-26T11:59:40.799Z,66.87
2019-06-26T12:00:41.787Z,66.97
2019-06-26T12:01:40.796Z,66.77
2019-06-26T12:02:40.774Z,66.57
2019-06-26T12:03:40.760Z,66.47
2019-06-26T12:04:40.799Z,66.38
2019-06-26T12:05:40.735Z,66.38
2019-06-26T12:06:40.750Z,66.27
2019-06-26T12:07:40.930Z,66.67
2019-06-26T12:08:40.745Z,66.54
2019-06-26T12:09:40.745Z,66.47
2019-06-26T12:10:40.679Z,66.97
2019-06-26T12:11:40.753Z,67.04
2019-06-26T12:12:40.658Z,66.84
2019-06-26T12:13:40.652Z,66.84
2019-06-26T12:14:40.662Z,66.74
2019-06-26T12:15:40.641Z,66.84
2019-06-26T12:16:40.626Z,66.87
2019-06-26T12:17:40.608Z,66.97
2019-06-26T12:18:40.602Z,67.07
2019-06-26T12:19:40.604Z,67.47
2019-06-26T12:20:40.600Z,67.37
2019-06-26T12:21:40.571Z,67.17
2019-06-26T12:22:40.547Z,67.37
2019-06-26T12:23:40.534Z,67.37
2019-06-26T12:24:40.545Z,67.27
2019-06-26T12:25:40.535Z,67.27
2019-06-26T12:26:40.511Z,67.27
2019-06-26T12:27:40.492Z,67.27
2019-06-26T12:28:40.479Z,67.14
2019-06-26T12:29:40.478Z,67.04
2019-06-26T12:30:40.502Z,67.04
2019-06-26T12:31:40.448Z,66.94
2019-06-26T12:32:42.680Z,66.94
2019-06-26T12:33:41.424Z,67.07
2019-06-26T12:34:40.420Z,67.14
2019-06-26T12:35:40.404Z,67.33
2019-06-26T12:36:40.414Z,67.24
2019-06-26T12:37:40.417Z,67.24
2019-06-26T12:38:40.374Z,67.33
2019-06-26T12:39:40.388Z,67.14
2019-06-26T12:40:40.350Z,67.04
2019-06-26T12:41:40.338Z,66.84
2019-06-26T12:42:40.371Z,66.74
2019-06-26T12:43:40.320Z,66.64
2019-06-26T12:44:40.309Z,66.64
2019-06-26T12:45:40.299Z,66.64
2019-06-26T12:46:40.287Z,66.64
2019-06-26T12:47:40.277Z,66.64
2019-06-26T12:48:40.284Z,66.54
2019-06-26T12:49:40.261Z,66.54
2019-06-26T12:50:40.242Z,66.64
2019-06-26T12:51:40.235Z,66.74
2019-06-26T12:52:40.262Z,66.74
2019-06-26T12:53:40.236Z,66.64
2019-06-26T12:54:40.200Z,66.64
2019-06-26T12:55:40.187Z,66.64
2019-06-26T12:56:40.192Z,66.64
2019-06-26T12:57:40.163Z,66.64
2019-06-26T12:58:40.173Z,66.64
2019-06-26T12:59:56.101Z,66.64
2019-06-26T13:00:41.136Z,66.64
2019-06-26T13:01:40.126Z,66.74
2019-06-26T13:02:40.115Z,66.74
2019-06-26T13:03:40.144Z,66.35
2019-06-26T13:04:40.092Z,66.35
2019-06-26T13:05:40.077Z,66.35
2019-06-26T13:06:40.074Z,66.44
2019-06-26T13:07:40.081Z,66.44
2019-06-26T13:08:40.050Z,66.35
2019-06-26T13:09:40.061Z,66.44
2019-06-26T13:10:49.789Z,66.44
2019-06-26T13:11:41.011Z,66.44
2019-06-26T13:12:40.017Z,66.44
2019-06-26T13:13:39.998Z,66.35
2019-06-26T13:14:40.011Z,66.44
2019-06-26T13:15:40.021Z,66.35
2019-06-26T13:16:40.022Z,66.35
2019-06-26T13:17:39.974Z,66.35
2019-06-26T13:18:39.992Z,66.35
2019-06-26T13:19:39.942Z,66.35
2019-06-26T13:20:52.190Z,66.35
2019-06-26T13:21:40.956Z,66.35
2019-06-26T13:22:39.920Z,66.24
2019-06-26T13:23:39.923Z,66.24
2019-06-26T13:24:43.651Z,66.35
2019-06-26T13:25:39.858Z,66.24
2019-06-26T13:26:39.870Z,66.14
2019-06-26T13:27:39.843Z,66.14
2019-06-26T13:28:39.834Z,66.14
2019-06-26T13:29:39.824Z,66.14
2019-06-26T13:30:39.834Z,66.14
2019-06-26T13:31:39.828Z,66.14
2019-06-26T13:32:39.787Z,66.14
2019-06-26T13:33:39.784Z,66.24
2019-06-26T13:34:39.762Z,66.14
2019-06-26T13:35:39.792Z,66.05
2019-06-26T13:36:39.741Z,65.94
2019-06-26T13:37:39.734Z,65.84
2019-06-26T13:38:39.720Z,65.84
2019-06-26T13:39:39.716Z,65.75
2019-06-26T13:40:41.079Z,65.75
2019-06-26T13:41:39.704Z,65.64
2019-06-26T13:42:39.672Z,65.64
2019-06-26T13:43:39.709Z,65.55
2019-06-26T13:44:39.650Z,65.45
2019-06-26T13:45:39.651Z,65.45
2019-06-26T13:46:39.636Z,65.55
2019-06-26T13:47:39.627Z,65.64
2019-06-26T13:48:39.609Z,65.75
2019-06-26T13:49:39.623Z,65.64
2019-06-26T13:50:39.593Z,65.75
2019-06-26T13:51:39.575Z,65.75
2019-06-26T13:52:39.565Z,65.75
2019-06-26T13:53:39.569Z,65.75
2019-06-26T13:54:39.547Z,65.84
2019-06-26T13:55:39.652Z,65.94
2019-06-26T13:56:39.522Z,66.05
2019-06-26T13:57:39.513Z,66.14
2019-06-26T13:58:39.504Z,65.94
2019-06-26T13:59:39.492Z,65.84
2019-06-26T14:00:39.483Z,65.84
2019-06-26T14:01:39.486Z,65.94
2019-06-26T14:02:39.456Z,65.94
2019-06-26T14:03:39.495Z,66.05
2019-06-26T14:04:39.440Z,66.05
2019-06-26T14:05:39.431Z,65.64
2019-06-26T14:06:39.418Z,65.64
2019-06-26T14:07:39.404Z,65.64
2019-06-26T14:08:39.399Z,65.64
2019-06-26T14:09:39.407Z,65.75
2019-06-26T14:10:39.386Z,65.75
2019-06-26T14:11:39.357Z,65.75
2019-06-26T14:12:39.365Z,65.75
2019-06-26T14:13:41.786Z,65.75
2019-06-26T14:14:56.276Z,65.45
2019-06-26T14:15:40.346Z,65.35
2019-06-26T14:16:39.365Z,65.35
2019-06-26T14:17:39.297Z,65.55
2019-06-26T14:18:39.289Z,65.55
2019-06-26T14:19:39.274Z,65.45
2019-06-26T14:20:39.264Z,65.45
2019-06-26T14:21:39.280Z,65.64
2019-06-26T14:22:39.238Z,65.75
2019-06-26T14:23:39.229Z,65.84
2019-06-26T14:24:39.217Z,65.84
2019-06-26T14:25:39.211Z,65.64
2019-06-26T14:26:39.219Z,65.75
2019-06-26T14:27:39.213Z,65.75
2019-06-26T14:28:39.173Z,65.84
2019-06-26T14:29:39.172Z,65.75
2019-06-26T14:30:39.150Z,66.05
2019-06-26T14:31:39.138Z,65.94
2019-06-26T14:32:39.131Z,65.94
2019-06-26T14:33:39.138Z,65.91
2019-06-26T14:34:39.112Z,65.72
2019-06-26T14:35:39.105Z,65.61
2019-06-26T14:36:39.112Z,65.61
2019-06-26T14:37:39.107Z,65.72
2019-06-26T14:38:39.069Z,65.72
2019-06-26T14:39:41.044Z,65.72
2019-06-26T14:40:39.051Z,65.91
2019-06-26T14:41:39.374Z,66.01
2019-06-26T14:42:39.028Z,66.21
2019-06-26T14:43:39.110Z,66.31
2019-06-26T14:44:38.999Z,66.41
2019-06-26T14:45:38.994Z,66.31
2019-06-26T14:46:38.993Z,66.31
2019-06-26T14:47:38.967Z,66.31
2019-06-26T14:48:39.036Z,66.41
2019-06-26T14:49:38.946Z,66.31
2019-06-26T14:50:38.936Z,66.51
2019-06-26T14:51:46.926Z,66.61
2019-06-26T14:52:39.908Z,66.51
2019-06-26T14:53:38.901Z,66.61
2019-06-26T14:54:38.922Z,66.71
2019-06-26T14:55:38.881Z,66.71
2019-06-26T14:56:38.875Z,66.81
2019-06-26T14:57:38.869Z,67.00
2019-06-26T14:58:38.852Z,66.91
2019-06-26T14:59:38.853Z,66.81
2019-06-26T15:00:38.848Z,66.91
2019-06-26T15:01:38.819Z,67.00
2019-06-26T15:02:38.803Z,66.81
2019-06-26T15:03:38.796Z,66.71
2019-06-26T15:04:38.801Z,66.81
2019-06-26T15:05:38.817Z,66.71
2019-06-26T15:06:38.760Z,66.81
2019-06-26T15:07:38.758Z,66.81
2019-06-26T15:08:38.761Z,66.81
2019-06-26T15:09:38.729Z,66.81
2019-06-26T15:10:38.743Z,66.81
2019-06-26T15:11:38.736Z,66.71